createdAt,value
2022-11-17T00:02:03.263Z,8.43
2022-11-17T00:04:30.537Z,9.25
2022-11-17T00:06:58.504Z,8.63
2022-11-17T00:09:25.996Z,9.15
2022-11-17T00:12:11.668Z,9.40
2022-11-17T00:14:40.906Z,10.13
2022-11-17T00:17:11.086Z,10.30
2022-11-17T00:19:57.471Z,10.48
2022-11-17T00:22:26.177Z,9.90
2022-11-17T00:24:53.408Z,9.77
2022-11-17T00:27:20.615Z,10.88
2022-11-17T00:29:47.858Z,10.25
2022-11-17T00:32:35.206Z,10.50
2022-11-17T00:35:02.585Z,11.18
2022-11-17T00:37:31.050Z,10.50
2022-11-17T00:40:01.028Z,10.77
2022-11-17T00:42:28.615Z,11.40
2022-11-17T00:44:55.829Z,11.27
2022-11-17T00:47:23.016Z,11.48
2022-11-17T00:49:50.258Z,11.25
2022-11-17T00:52:17.432Z,11.43
2022-11-17T00:54:44.629Z,11.02
2022-11-17T00:57:11.799Z,11.98
2022-11-17T00:59:39.016Z,11.40
2022-11-17T01:02:06.207Z,12.05
2022-11-17T01:04:33.366Z,11.85
2022-11-17T01:07:00.608Z,11.15
2022-11-17T01:09:27.968Z,12.63
2022-11-17T01:11:55.143Z,11.75
2022-11-17T01:14:24.287Z,11.73
2022-11-17T01:16:52.052Z,13.00
2022-11-17T01:19:19.473Z,11.40
2022-11-17T01:21:47.119Z,12.15
2022-11-17T01:24:16.183Z,12.40
2022-11-17T01:26:44.858Z,12.07
2022-11-17T01:29:14.419Z,11.93
2022-11-17T01:31:45.927Z,12.65
2022-11-17T01:34:13.399Z,11.18
2022-11-17T01:37:01.570Z,12.25
2022-11-17T01:39:30.137Z,11.45
2022-11-17T01:41:57.751Z,11.63
2022-11-17T01:44:48.210Z,11.80
2022-11-17T01:47:26.300Z,11.45
2022-11-17T01:49:56.691Z,10.82
2022-11-17T01:52:25.079Z,12.20
2022-11-17T01:54:53.319Z,12.48
2022-11-17T01:57:28.281Z,11.25
2022-11-17T01:59:59.518Z,11.80
2022-11-17T02:02:27.252Z,11.73
2022-11-17T02:05:08.705Z,10.80
2022-11-17T02:07:38.402Z,11.55
2022-11-17T02:10:06.607Z,11.50
2022-11-17T02:12:34.771Z,11.40
2022-11-17T02:15:02.204Z,11.70
2022-11-17T02:17:37.539Z,11.65
2022-11-17T02:20:17.175Z,11.40
2022-11-17T02:22:53.256Z,11.50
2022-11-17T02:25:45.271Z,11.25
2022-11-17T02:28:21.243Z,11.60
2022-11-17T02:31:19.069Z,11.82
2022-11-17T02:34:20.499Z,11.93
2022-11-17T02:36:57.783Z,11.55
2022-11-17T02:39:50.193Z,11.88
2022-11-17T02:42:48.800Z,10.55
2022-11-17T02:45:22.653Z,10.63
2022-11-17T02:47:51.810Z,11.63
2022-11-17T02:50:25.286Z,11.77
2022-11-17T02:52:55.519Z,11.85
2022-11-17T02:55:22.691Z,12.15
2022-11-17T02:57:49.917Z,12.10
2022-11-17T03:00:20.741Z,11.38
2022-11-17T03:03:10.353Z,12.18
2022-11-17T03:05:59.449Z,11.23
2022-11-17T03:09:04.368Z,11.57
2022-11-17T03:11:44.572Z,10.75
2022-11-17T03:14:37.780Z,11.50
2022-11-17T03:17:14.102Z,11.23
2022-11-17T03:19:53.294Z,11.15
2022-11-17T03:22:27.915Z,10.82
2022-11-17T03:24:59.367Z,11.23
2022-11-17T03:27:51.036Z,10.52
2022-11-17T03:30:18.397Z,10.93
2022-11-17T03:32:50.668Z,11.18
2022-11-17T03:35:29.019Z,10.65
2022-11-17T03:38:02.167Z,10.48
2022-11-17T03:40:31.604Z,11.10
2022-11-17T03:45:33.784Z,10.60
2022-11-17T03:48:07.293Z,11.05
2022-11-17T03:50:37.560Z,11.25
2022-11-17T03:53:05.799Z,11.32
2022-11-17T03:55:47.449Z,11.20
2022-11-17T03:58:18.407Z,11.90
2022-11-17T04:00:46.720Z,10.02
2022-11-17T04:03:13.971Z,10.77
2022-11-17T04:05:41.220Z,11.73
2022-11-17T04:08:08.458Z,11.55
2022-11-17T04:10:55.714Z,11.73
2022-11-17T04:13:41.505Z,11.95
2022-11-17T04:16:08.781Z,12.27
2022-11-17T04:18:35.957Z,11.80
2022-11-17T04:21:03.226Z,12.32
2022-11-17T04:23:30.414Z,12.25
2022-11-17T04:26:16.576Z,11.75
2022-11-17T04:28:47.279Z,11.68
2022-11-17T04:31:31.182Z,12.18
2022-11-17T04:34:03.358Z,12.38
2022-11-17T04:36:32.621Z,12.23
2022-11-17T04:39:00.904Z,12.40
2022-11-17T04:41:48.501Z,12.15
2022-11-17T04:44:17.166Z,12.00
2022-11-17T04:46:46.142Z,12.23
2022-11-17T04:49:16.815Z,11.95
2022-11-17T04:51:44.480Z,12.68
2022-11-17T04:54:13.476Z,12.45
2022-11-17T04:56:40.887Z,12.77
2022-11-17T04:59:08.213Z,12.45
2022-11-17T05:01:35.514Z,12.30
2022-11-17T05:04:05.612Z,13.15
2022-11-17T05:06:32.696Z,12.52
2022-11-17T05:09:01.658Z,12.38
2022-11-17T05:11:48.826Z,12.88
2022-11-17T05:14:18.294Z,13.35
2022-11-17T05:19:38.551Z,13.00
2022-11-17T05:22:26.446Z,13.75
2022-11-17T05:24:53.898Z,12.75
2022-11-17T05:27:22.033Z,13.68
2022-11-17T05:29:49.535Z,14.07
2022-11-17T05:32:17.019Z,13.40
2022-11-17T05:34:44.224Z,13.25
2022-11-17T05:37:11.476Z,12.65
2022-11-17T05:39:38.673Z,14.05
2022-11-17T05:42:05.937Z,14.52
2022-11-17T05:44:33.116Z,13.20
2022-11-17T05:47:00.298Z,13.50
2022-11-17T05:49:27.538Z,13.10
2022-11-17T05:51:54.713Z,14.35
2022-11-17T05:54:21.883Z,13.50
2022-11-17T05:56:49.243Z,13.95
2022-11-17T05:59:30.576Z,14.32
2022-11-17T06:02:04.033Z,13.45
2022-11-17T06:04:31.440Z,12.55
2022-11-17T06:07:00.183Z,13.50
2022-11-17T06:09:33.247Z,13.20
2022-11-17T06:12:05.607Z,14.50
2022-11-17T06:14:33.835Z,14.00
2022-11-17T06:17:04.194Z,14.13
2022-11-17T06:19:41.611Z,14.55
2022-11-17T06:22:13.535Z,14.20
2022-11-17T06:24:42.237Z,13.93
2022-11-17T06:27:11.169Z,14.85
2022-11-17T06:29:44.063Z,13.73
2022-11-17T06:32:13.262Z,13.65
2022-11-17T06:34:40.833Z,13.07
2022-11-17T06:37:08.005Z,13.20
2022-11-17T06:39:35.190Z,13.45
2022-11-17T06:42:02.357Z,13.35
2022-11-17T06:44:29.554Z,12.25
2022-11-17T06:46:56.931Z,12.85
2022-11-17T06:49:24.143Z,11.95
2022-11-17T06:51:51.530Z,12.20
2022-11-17T06:54:18.740Z,12.32
2022-11-17T06:56:46.069Z,13.35
2022-11-17T06:59:15.299Z,11.93
2022-11-17T07:01:43.334Z,12.13
2022-11-17T07:04:10.829Z,12.30
2022-11-17T07:06:38.487Z,11.63
2022-11-17T07:09:06.085Z,11.48
2022-11-17T07:11:36.319Z,10.68
2022-11-17T07:14:03.563Z,11.32
2022-11-17T07:16:32.444Z,10.80
2022-11-17T07:18:59.661Z,10.57
2022-11-17T07:21:27.025Z,10.82
2022-11-17T07:23:54.548Z,10.93
2022-11-17T07:26:21.757Z,10.73
2022-11-17T07:28:48.930Z,10.45
2022-11-17T07:31:16.636Z,10.48
2022-11-17T07:33:43.848Z,11.25
2022-11-17T07:36:12.385Z,10.50
2022-11-17T07:38:40.664Z,10.20
2022-11-17T07:41:09.268Z,11.73
2022-11-17T07:43:36.832Z,10.60
2022-11-17T07:46:09.023Z,10.27
2022-11-17T07:48:36.706Z,10.30
2022-11-17T07:51:04.820Z,10.30
2022-11-17T07:53:33.324Z,10.50
2022-11-17T07:56:05.106Z,10.17
2022-11-17T07:58:32.726Z,10.52
2022-11-17T08:01:00.436Z,10.40
2022-11-17T08:03:27.724Z,10.77
2022-11-17T08:05:54.878Z,10.85
2022-11-17T08:08:22.050Z,10.20
2022-11-17T08:10:49.226Z,11.73
2022-11-17T08:13:16.469Z,10.93
2022-11-17T08:15:43.680Z,11.20
2022-11-17T08:18:10.934Z,10.52
2022-11-17T08:20:38.230Z,10.73
2022-11-17T08:23:05.446Z,10.85
2022-11-17T08:25:32.690Z,10.98
2022-11-17T08:28:00.031Z,10.80
2022-11-17T08:30:28.504Z,11.10
2022-11-17T08:32:55.818Z,10.73
2022-11-17T08:35:24.691Z,11.15
2022-11-17T08:37:52.405Z,10.98
2022-11-17T08:40:19.942Z,11.20
2022-11-17T08:42:47.194Z,11.82
2022-11-17T08:45:14.726Z,11.30
2022-11-17T08:47:41.961Z,10.57
2022-11-17T08:50:09.673Z,11.00
2022-11-17T08:52:36.903Z,10.73
2022-11-17T08:55:05.720Z,11.65
2022-11-17T08:57:33.621Z,11.07
2022-11-17T09:00:01.570Z,11.35
2022-11-17T09:02:28.939Z,11.35
2022-11-17T09:04:56.109Z,11.05
2022-11-17T09:07:23.458Z,12.07
2022-11-17T09:09:50.694Z,11.98
2022-11-17T09:12:18.955Z,11.90
2022-11-17T09:14:46.190Z,11.60
2022-11-17T09:17:13.411Z,12.48
2022-11-17T09:19:40.578Z,11.68
2022-11-17T09:22:08.011Z,11.38
2022-11-17T09:24:35.236Z,11.40
2022-11-17T09:27:03.570Z,12.48
2022-11-17T09:29:31.107Z,12.55
2022-11-17T09:31:58.365Z,12.15
2022-11-17T09:34:25.802Z,12.05
2022-11-17T09:36:53.019Z,13.25
2022-11-17T09:39:21.328Z,11.88
2022-11-17T09:41:56.098Z,11.27
2022-11-17T09:44:33.248Z,12.55
2022-11-17T09:47:19.297Z,11.90
2022-11-17T09:50:03.866Z,12.88
2022-11-17T09:52:57.778Z,12.77
2022-11-17T09:55:36.582Z,12.48
2022-11-17T09:58:18.139Z,13.05
2022-11-17T10:00:52.711Z,13.07
2022-11-17T10:03:22.201Z,12.15
2022-11-17T10:08:20.210Z,12.32
2022-11-17T10:10:49.358Z,12.15
2022-11-17T10:13:24.088Z,13.00
2022-11-17T10:16:12.774Z,13.15
2022-11-17T10:18:40.080Z,12.70
2022-11-17T10:21:09.130Z,13.48
2022-11-17T10:23:47.139Z,12.40
2022-11-17T10:26:15.855Z,13.37
2022-11-17T10:28:43.294Z,13.07
2022-11-17T10:31:16.029Z,13.95
2022-11-17T10:33:44.540Z,14.13
2022-11-17T10:36:26.882Z,14.23
2022-11-17T10:38:56.033Z,14.20
2022-11-17T10:41:28.781Z,14.90
2022-11-17T10:44:03.853Z,14.25
2022-11-17T10:46:40.605Z,15.10
2022-11-17T10:49:28.517Z,15.30
2022-11-17T10:52:16.237Z,14.65
2022-11-17T10:54:43.662Z,15.35
2022-11-17T10:57:23.167Z,15.48
2022-11-17T10:59:56.688Z,15.35
2022-11-17T11:02:34.762Z,15.07
2022-11-17T11:05:12.557Z,15.25
2022-11-17T11:07:40.934Z,14.82
2022-11-17T11:10:19.075Z,15.10
2022-11-17T11:13:08.102Z,14.88
2022-11-17T11:15:36.558Z,14.80
2022-11-17T11:18:14.651Z,14.57
2022-11-17T11:21:05.201Z,18.17
2022-11-17T11:23:47.772Z,15.73
2022-11-17T11:26:44.695Z,15.57
2022-11-17T11:29:36.905Z,13.93
2022-11-17T11:32:08.463Z,14.35
2022-11-17T11:34:57.167Z,14.10
2022-11-17T11:37:33.887Z,13.35
2022-11-17T11:40:21.775Z,14.00
2022-11-17T11:43:08.784Z,13.73
2022-11-17T11:45:56.764Z,13.65
2022-11-17T11:48:31.981Z,14.05
2022-11-17T11:51:00.803Z,13.82
2022-11-17T11:53:32.805Z,13.52
2022-11-17T11:56:10.299Z,13.50
2022-11-17T11:58:56.383Z,14.55
2022-11-17T12:01:24.052Z,13.82
2022-11-17T12:04:23.662Z,13.25
2022-11-17T12:07:02.093Z,13.02
2022-11-17T12:09:51.024Z,14.73
2022-11-17T12:12:20.895Z,13.75
2022-11-17T12:15:19.956Z,13.40
2022-11-17T12:17:55.303Z,12.88
2022-11-17T12:20:37.069Z,13.90
2022-11-17T12:23:25.687Z,13.13
2022-11-17T12:25:59.513Z,12.77
2022-11-17T12:28:36.709Z,11.65
2022-11-17T12:31:11.260Z,12.77
2022-11-17T12:33:53.777Z,13.50
2022-11-17T12:36:31.548Z,12.45
2022-11-17T12:39:01.102Z,12.38
2022-11-17T12:41:50.106Z,11.95
2022-11-17T12:44:38.588Z,11.85
2022-11-17T12:47:28.415Z,12.47
2022-11-17T12:50:17.343Z,11.75
2022-11-17T12:52:59.551Z,11.93
2022-11-17T12:55:31.559Z,11.43
2022-11-17T12:58:19.415Z,11.73
2022-11-17T13:01:28.291Z,11.40
2022-11-17T13:03:59.706Z,11.40
2022-11-17T13:06:36.295Z,11.45
2022-11-17T13:09:11.397Z,12.23
2022-11-17T13:11:38.865Z,11.55
2022-11-17T13:14:11.256Z,11.65
2022-11-17T13:16:48.622Z,11.63
2022-11-17T13:19:36.916Z,12.50
2022-11-17T13:22:17.111Z,11.75
2022-11-17T13:24:46.468Z,12.23
2022-11-17T13:30:11.838Z,11.75
2022-11-17T13:32:40.036Z,10.90
2022-11-17T13:35:32.368Z,10.80
2022-11-17T13:38:06.125Z,10.68
2022-11-17T13:40:34.734Z,11.02
2022-11-17T13:43:03.072Z,10.77
2022-11-17T13:45:30.546Z,10.07
2022-11-17T13:47:59.347Z,10.98
2022-11-17T13:50:29.497Z,11.25
2022-11-17T13:52:59.899Z,10.20
2022-11-17T13:55:27.971Z,9.88
2022-11-17T13:57:59.650Z,10.45
2022-11-17T14:00:27.767Z,9.85
2022-11-17T14:03:05.611Z,10.13
2022-11-17T14:05:33.648Z,9.75
2022-11-17T14:08:24.660Z,10.00
2022-11-17T14:11:13.593Z,10.32
2022-11-17T14:13:45.492Z,10.52
2022-11-17T14:16:27.196Z,10.38
2022-11-17T14:18:59.827Z,11.27
2022-11-17T14:21:27.656Z,10.18
2022-11-17T14:24:04.182Z,11.32
2022-11-17T14:26:31.466Z,12.27
2022-11-17T14:29:07.352Z,12.73
2022-11-17T14:31:34.526Z,12.77
2022-11-17T14:34:01.694Z,13.85
2022-11-17T14:36:28.971Z,13.43
2022-11-17T14:38:56.203Z,13.55
2022-11-17T14:41:23.386Z,14.27
2022-11-17T14:43:51.321Z,14.35
2022-11-17T14:46:24.535Z,14.60
2022-11-17T14:48:52.764Z,13.93
2022-11-17T14:51:20.879Z,14.55
2022-11-17T14:53:48.390Z,15.20
2022-11-17T14:56:17.997Z,14.82
2022-11-17T14:58:46.601Z,14.43
2022-11-17T15:01:20.309Z,14.37
2022-11-17T15:03:47.804Z,15.30
2022-11-17T15:06:19.390Z,15.60
2022-11-17T15:08:47.783Z,14.73
2022-11-17T15:11:17.025Z,15.10
2022-11-17T15:13:44.448Z,15.60
2022-11-17T15:16:12.084Z,15.60
2022-11-17T15:18:39.432Z,14.57
2022-11-17T15:21:08.294Z,14.43
2022-11-17T15:23:38.374Z,15.60
2022-11-17T15:26:06.692Z,15.73
2022-11-17T15:28:34.050Z,16.08
2022-11-17T15:31:09.136Z,15.10
2022-11-17T15:33:36.847Z,15.23
2022-11-17T15:36:05.366Z,16.25
2022-11-17T15:38:33.027Z,16.63
2022-11-17T15:41:00.218Z,16.10
2022-11-17T15:43:32.207Z,17.10
2022-11-17T15:46:04.701Z,17.10
2022-11-17T15:48:42.308Z,16.63
2022-11-17T15:51:17.291Z,17.00
2022-11-17T15:53:46.367Z,17.27
2022-11-17T15:56:23.427Z,16.92
2022-11-17T15:58:56.475Z,18.02
2022-11-17T16:01:42.176Z,19.35
2022-11-17T16:04:15.494Z,18.80
2022-11-17T16:06:43.878Z,18.38
2022-11-17T16:09:12.266Z,17.90
2022-11-17T16:11:40.069Z,17.52
2022-11-17T16:14:07.382Z,18.50
2022-11-17T16:16:37.342Z,18.25
2022-11-17T16:19:04.966Z,18.35
2022-11-17T16:21:32.218Z,17.67
2022-11-17T16:24:00.776Z,19.40
2022-11-17T16:26:28.671Z,17.95
2022-11-17T16:29:00.745Z,19.70
2022-11-17T16:31:29.848Z,20.70
2022-11-17T16:33:59.358Z,20.35
2022-11-17T16:36:34.542Z,19.95
2022-11-17T16:39:04.955Z,20.00
2022-11-17T16:41:37.778Z,22.40
2022-11-17T16:44:10.526Z,21.58
2022-11-17T16:46:38.362Z,20.08
2022-11-17T16:49:07.689Z,20.42
2022-11-17T16:51:35.092Z,20.63
2022-11-17T16:54:04.390Z,21.45
2022-11-17T16:56:32.378Z,21.65
2022-11-17T16:58:59.979Z,21.08
2022-11-17T17:01:30.342Z,21.17
2022-11-17T17:03:59.303Z,20.70
2022-11-17T17:06:26.903Z,21.52
2022-11-17T17:09:02.865Z,20.95
2022-11-17T17:11:31.892Z,20.38
2022-11-17T17:14:04.567Z,20.92
2022-11-17T17:16:33.519Z,19.98
2022-11-17T17:19:04.021Z,20.23
2022-11-17T17:21:31.383Z,20.08
2022-11-17T17:23:58.740Z,19.60
2022-11-17T17:26:28.261Z,20.38
2022-11-17T17:28:57.122Z,23.35
2022-11-17T17:31:25.554Z,20.83
2022-11-17T17:33:53.086Z,20.43
2022-11-17T17:36:22.227Z,21.73
2022-11-17T17:38:55.465Z,20.52
2022-11-17T17:41:29.210Z,21.00
2022-11-17T17:43:59.036Z,21.42
2022-11-17T17:46:27.169Z,20.52
2022-11-17T17:48:54.393Z,19.42
2022-11-17T17:51:24.705Z,20.08
2022-11-17T17:53:53.321Z,20.60
2022-11-17T17:56:21.731Z,19.23
2022-11-17T18:01:29.527Z,18.77
2022-11-17T18:04:01.259Z,19.13
2022-11-17T18:06:28.467Z,19.35
2022-11-17T18:08:56.978Z,19.35
2022-11-17T18:11:24.278Z,19.97
2022-11-17T18:13:53.032Z,19.52
2022-11-17T18:16:28.618Z,18.63
2022-11-17T18:18:57.844Z,19.80
2022-11-17T18:21:25.726Z,19.20
2022-11-17T18:23:53.950Z,20.33
2022-11-17T18:26:26.787Z,19.98
2022-11-17T18:28:58.866Z,19.10
2022-11-17T18:31:28.430Z,19.27
2022-11-17T18:34:01.091Z,19.30
2022-11-17T18:36:29.433Z,18.75
2022-11-17T18:38:58.561Z,19.45
2022-11-17T18:41:26.971Z,19.23
2022-11-17T18:43:55.479Z,18.98
2022-11-17T18:46:24.048Z,19.97
2022-11-17T18:48:52.095Z,18.63
2022-11-17T18:51:22.002Z,18.92
2022-11-17T18:53:51.546Z,19.23
2022-11-17T18:56:24.078Z,18.52
2022-11-17T18:58:52.023Z,18.85
2022-11-17T19:01:23.889Z,20.48
2022-11-17T19:03:53.408Z,19.50
2022-11-17T19:08:48.646Z,18.58
2022-11-17T19:11:17.186Z,20.02
2022-11-17T19:13:45.141Z,18.23
2022-11-17T19:16:13.388Z,19.25
2022-11-17T19:18:41.105Z,19.35
2022-11-17T19:21:11.408Z,19.20
2022-11-17T19:23:40.132Z,20.33
2022-11-17T19:26:10.041Z,20.85
2022-11-17T19:28:37.693Z,20.27
2022-11-17T19:31:16.877Z,20.85
2022-11-17T19:33:45.316Z,21.45
2022-11-17T19:36:17.858Z,21.33
2022-11-17T19:38:47.201Z,21.42
2022-11-17T19:41:16.396Z,21.48
2022-11-17T19:43:45.441Z,20.75
2022-11-17T19:48:41.878Z,22.52
2022-11-17T19:51:33.264Z,23.25
2022-11-17T19:54:05.611Z,23.58
2022-11-17T19:56:32.824Z,23.30
2022-11-17T19:59:00.025Z,24.63
2022-11-17T20:01:28.693Z,24.17
2022-11-17T20:03:57.489Z,23.73
2022-11-17T20:06:29.377Z,24.07
2022-11-17T20:08:57.513Z,25.13
2022-11-17T20:11:26.879Z,24.60
2022-11-17T20:13:54.718Z,24.98
2022-11-17T20:16:24.624Z,26.55
2022-11-17T20:18:54.566Z,26.13
2022-11-17T20:21:22.037Z,26.60
2022-11-17T20:23:49.552Z,26.05
2022-11-17T20:26:23.371Z,27.38
2022-11-17T20:28:51.207Z,26.15
2022-11-17T20:31:26.953Z,26.50
2022-11-17T20:34:00.291Z,27.88
2022-11-17T20:36:29.437Z,27.83
2022-11-17T20:39:01.059Z,26.15
2022-11-17T20:41:28.761Z,26.60
2022-11-17T20:43:57.354Z,27.02
2022-11-17T20:46:25.261Z,26.60
2022-11-17T20:48:52.524Z,27.40
2022-11-17T20:51:21.784Z,27.33
2022-11-17T20:53:50.389Z,26.48
2022-11-17T20:56:18.074Z,28.20
2022-11-17T20:58:45.616Z,27.52
2022-11-17T21:01:21.132Z,27.20
2022-11-17T21:03:49.179Z,25.20
2022-11-17T21:06:17.162Z,26.95
2022-11-17T21:08:45.364Z,27.50
2022-11-17T21:11:44.058Z,28.02
2022-11-17T21:14:12.772Z,27.13
2022-11-17T21:16:45.572Z,26.63
2022-11-17T21:19:14.168Z,28.60
2022-11-17T21:21:41.681Z,29.33
2022-11-17T21:24:09.413Z,29.55
2022-11-17T21:26:36.595Z,29.38
2022-11-17T21:29:06.732Z,30.13
2022-11-17T21:31:34.535Z,29.83
2022-11-17T21:34:04.213Z,29.60
2022-11-17T21:36:32.299Z,29.02
2022-11-17T21:38:59.671Z,30.25
2022-11-17T21:41:29.085Z,29.63
2022-11-17T21:46:27.160Z,28.75
2022-11-17T21:48:56.452Z,28.63
2022-11-17T21:53:56.662Z,27.83
2022-11-17T21:56:27.226Z,29.17
2022-11-17T21:58:55.597Z,29.30
2022-11-17T22:01:23.170Z,29.27
2022-11-17T22:03:50.556Z,31.20
2022-11-17T22:06:28.313Z,29.67
2022-11-17T22:08:56.633Z,29.63
2022-11-17T22:11:35.691Z,29.30
2022-11-17T22:14:08.038Z,29.23
2022-11-17T22:16:37.093Z,28.10
2022-11-17T22:19:05.119Z,28.30
2022-11-17T22:21:32.847Z,29.23
2022-11-17T22:24:00.467Z,29.27
2022-11-17T22:26:27.690Z,28.67
2022-11-17T22:28:55.740Z,27.85
2022-11-17T22:31:23.323Z,30.33
2022-11-17T22:33:51.175Z,28.67
2022-11-17T22:36:18.924Z,30.20
2022-11-17T22:38:48.600Z,28.73
2022-11-17T22:41:15.833Z,29.98
2022-11-17T22:43:43.267Z,29.52
2022-11-17T22:46:11.806Z,26.98
2022-11-17T22:48:39.023Z,27.40
2022-11-17T22:51:08.176Z,29.55
2022-11-17T22:53:35.695Z,28.63
2022-11-17T22:56:07.617Z,29.58
2022-11-17T22:58:35.148Z,29.77
2022-11-17T23:01:06.892Z,29.52
2022-11-17T23:03:34.401Z,29.70
2022-11-17T23:06:05.582Z,27.73
2022-11-17T23:08:32.867Z,29.50
2022-11-17T23:11:35.056Z,29.08
2022-11-17T23:13:52.746Z,29.88
2022-11-17T23:16:19.931Z,27.73
2022-11-17T23:18:47.203Z,30.00
2022-11-17T23:21:15.256Z,29.33
2022-11-17T23:23:42.646Z,30.08
2022-11-17T23:26:11.716Z,27.80
2022-11-17T23:28:42.201Z,27.60
2022-11-17T23:31:14.040Z,29.60
2022-11-17T23:33:43.462Z,28.55
2022-11-17T23:38:41.686Z,28.20
2022-11-17T23:41:11.831Z,27.70
2022-11-17T23:43:39.645Z,28.73
2022-11-17T23:46:17.873Z,30.38
2022-11-17T23:48:45.383Z,30.40
2022-11-17T23:51:18.102Z,29.25
2022-11-17T23:53:46.248Z,29.92
2022-11-17T23:56:13.858Z,28.67
2022-11-17T23:58:41.144Z,28.08
